Terminal Aerodrome Forecast
Issued by NWS Grand Forks, ND

Home | Current Version | Previous Version | Graphics & Text | Print | Product List | Glossary On
Versions: 1 2 3 4 5 6 7 8 9 10 11 12 13 14 15 16 17 18 19 20 21 22 23 24 25
272
FTUS43 KFGF 291902 AAA
TAFFAR
TAF AMD
KFAR 291902Z 2919/3018 32015G24KT P6SM VCSH OVC040
     FM292300 32016KT P6SM VCSH BKN050
     FM300200 33010KT P6SM BKN040
     FM300800 31009KT P6SM BKN025
     FM301600 32014G23KT P6SM BKN025=

USA.gov is the U.S. government's official web portal to all federal, state and local government web resources and services.